Time;durP1;ratioP1;P1;durP2;ratioP2;P2;SDS_P1;SDS_P2;PMS_P1;PMS_P2;Temp;Humidity;BMP_temperature;BMP_pressure;BME280_temperature;BME280_humidity;BME280_pressure;Samples;Min_cycle;Max_cycle;Signal;HPM_P1;HPM_P2
2022/09/22 00:01:11;;;;;;;9.37;6.43;;;14.60;50.90;;;;;;5033271;28;20162;-42
2022/09/22 00:03:41;;;;;;;7.88;6.50;;;14.60;50.80;;;;;;5033163;28;20412;-42
2022/09/22 00:06:07;;;;;;;7.97;7.35;;;14.60;50.80;;;;;;5032772;28;20178;-42
2022/09/22 00:08:37;;;;;;;8.53;7.80;;;14.60;50.80;;;;;;5033057;28;20524;-41
2022/09/22 00:11:18;;;;;;;7.78;6.60;;;14.60;50.70;;;;;;5033341;28;20178;-41
2022/09/22 00:13:47;;;;;;;8.27;6.78;;;14.60;50.70;;;;;;5032353;28;20194;-41
2022/09/22 00:16:14;;;;;;;9.10;8.00;;;14.60;50.80;;;;;;5032544;28;20574;-42
2022/09/22 00:18:40;;;;;;;9.48;7.03;;;14.60;50.70;;;;;;5033302;28;20206;-42
2022/09/22 00:21:13;;;;;;;10.23;6.90;;;14.60;50.60;;;;;;5032907;28;20173;-42
2022/09/22 00:23:40;;;;;;;9.00;7.95;;;14.60;50.60;;;;;;5032918;28;20660;-42
2022/09/22 00:26:11;;;;;;;8.90;6.60;;;14.60;50.60;;;;;;5032459;28;20166;-42
2022/09/22 00:28:38;;;;;;;8.30;6.45;;;14.50;50.70;;;;;;5032815;28;20284;-42
2022/09/22 00:31:06;;;;;;;8.20;6.93;;;14.50;50.80;;;;;;5032955;28;20174;-43
2022/09/22 00:33:32;;;;;;;9.45;6.63;;;14.50;50.60;;;;;;5032614;28;20755;-42
2022/09/22 00:35:58;;;;;;;8.60;7.80;;;14.40;50.40;;;;;;5032030;28;20178;-42
2022/09/22 00:38:24;;;;;;;15.15;7.82;;;14.40;50.40;;;;;;5032746;28;20277;-42
2022/09/22 00:40:50;;;;;;;9.23;7.60;;;14.40;50.40;;;;;;5032646;28;20265;-42
2022/09/22 00:43:19;;;;;;;8.40;6.47;;;14.40;50.40;;;;;;5032667;28;20405;-42
2022/09/22 00:45:58;;;;;;;9.20;7.22;;;14.40;50.50;;;;;;5031830;28;20483;-42
2022/09/22 00:48:26;;;;;;;7.28;6.57;;;14.40;50.50;;;;;;5032349;28;20202;-42
2022/09/22 00:50:55;;;;;;;8.68;6.32;;;14.30;50.40;;;;;;5032428;28;20576;-42
2022/09/22 00:53:22;;;;;;;9.35;6.80;;;14.30;50.50;;;;;;5032260;28;20202;-49
2022/09/22 00:55:51;;;;;;;8.55;6.93;;;14.30;51.20;;;;;;5031646;28;20177;-42
2022/09/22 00:58:30;;;;;;;7.25;6.55;;;14.30;50.40;;;;;;5032120;28;20259;-42
2022/09/22 01:00:56;;;;;;;9.10;6.82;;;14.30;50.30;;;;;;5032330;28;20680;-42
2022/09/22 01:03:24;;;;;;;9.35;7.43;;;14.20;50.30;;;;;;5032180;28;20213;-42
2022/09/22 01:05:54;;;;;;;6.93;6.05;;;14.20;50.40;;;;;;5031557;28;20265;-42
2022/09/22 01:08:21;;;;;;;12.63;6.95;;;14.20;50.30;;;;;;5032039;28;20601;-42
2022/09/22 01:10:48;;;;;;;9.68;7.32;;;14.20;50.20;;;;;;5032103;28;20181;-42
2022/09/22 01:13:44;;;;;;;8.50;6.35;;;14.20;50.20;;;;;;5031869;28;20273;-42
2022/09/22 01:16:24;;;;;;;10.18;7.40;;;14.20;50.10;;;;;;5031546;28;20185;-42
2022/09/22 01:19:27;;;;;;;8.85;6.65;;;14.10;50.30;;;;;;5031992;28;20244;-42
2022/09/22 01:22:17;;;;;;;7.70;6.82;;;14.10;50.20;;;;;;5032003;28;20158;-42
2022/09/22 01:25:00;;;;;;;6.50;5.90;;;14.10;50.20;;;;;;5032388;28;20177;-42
2022/09/22 01:28:02;;;;;;;8.18;7.00;;;14.00;50.20;;;;;;5035824;28;20162;-42
2022/09/22 01:30:28;;;;;;;6.80;6.10;;;14.00;50.30;;;;;;4998600;28;20569;-42
2022/09/22 01:33:21;;;;;;;7.40;6.73;;;14.00;50.20;;;;;;5035996;28;20679;-42
2022/09/22 01:36:06;;;;;;;9.93;5.93;;;13.90;50.20;;;;;;5035409;28;20170;-42
2022/09/22 01:38:54;;;;;;;7.93;6.97;;;13.90;50.20;;;;;;5035903;28;20193;-42
2022/09/22 01:41:52;;;;;;;7.25;5.82;;;13.90;50.10;;;;;;5036146;28;20165;-42
2022/09/22 01:44:33;;;;;;;7.53;5.53;;;13.90;49.80;;;;;;5008884;28;20204;-42
2022/09/22 01:47:13;;;;;;;6.60;5.70;;;13.80;49.70;;;;;;5035193;28;20185;-42
2022/09/22 01:49:47;;;;;;;5.72;4.97;;;13.80;49.80;;;;;;5035604;28;20224;-42
2022/09/22 01:52:22;;;;;;;5.88;5.28;;;13.70;49.80;;;;;;5035642;28;20606;-42
2022/09/22 01:55:17;;;;;;;7.43;5.18;;;13.70;49.70;;;;;;5035593;28;20271;-42
2022/09/22 01:57:51;;;;;;;6.65;5.20;;;13.70;49.50;;;;;;5033082;28;20190;-42
2022/09/22 02:00:18;;;;;;;7.72;5.85;;;13.60;49.50;;;;;;5035488;28;20155;-42
2022/09/22 02:03:03;;;;;;;6.32;5.30;;;13.60;49.60;;;;;;5035399;28;20657;-42
2022/09/22 02:06:15;;;;;;;8.52;5.78;;;13.60;49.60;;;;;;5035382;28;20194;-42
2022/09/22 02:08:54;;;;;;;7.75;5.70;;;13.60;49.30;;;;;;4954872;28;20332;-42
2022/09/22 02:11:21;;;;;;;6.65;5.88;;;13.50;49.40;;;;;;4954949;29;20251;-42
2022/09/22 02:13:47;;;;;;;7.05;5.50;;;13.50;49.30;;;;;;4954790;28;20219;-42
2022/09/22 02:16:16;;;;;;;6.57;5.30;;;13.40;49.20;;;;;;4954377;29;20180;-42
2022/09/22 02:18:47;;;;;;;5.22;4.72;;;13.40;49.10;;;;;;4954592;29;20456;-41
2022/09/22 02:21:15;;;;;;;6.63;5.05;;;13.40;49.20;;;;;;4954751;29;20662;-42
2022/09/22 02:23:42;;;;;;;10.73;5.78;;;13.40;49.10;;;;;;4954807;29;20185;-42
2022/09/22 02:26:09;;;;;;;7.00;5.13;;;13.30;49.10;;;;;;4954010;29;20195;-42
2022/09/22 02:28:37;;;;;;;5.70;4.68;;;13.30;49.00;;;;;;4954578;28;20243;-42
2022/09/22 02:31:06;;;;;;;9.48;5.70;;;13.20;48.90;;;;;;4954568;29;20192;-42
2022/09/22 02:33:35;;;;;;;7.47;5.63;;;13.20;48.70;;;;;;4954399;29;20283;-42
2022/09/22 02:36:27;;;;;;;5.60;5.03;;;13.20;49.00;;;;;;4953895;28;20199;-42
2022/09/22 02:39:14;;;;;;;7.05;6.30;;;13.20;48.80;;;;;;4981225;28;20206;-42
2022/09/22 02:42:19;;;;;;;6.97;5.18;;;13.10;49.00;;;;;;5034870;28;20166;-42
2022/09/22 02:45:01;;;;;;;10.40;6.32;;;13.10;48.90;;;;;;5035035;28;20555;-42
2022/09/22 02:47:45;;;;;;;19.90;5.90;;;13.00;48.90;;;;;;5034443;28;20521;-42
2022/09/22 02:50:14;;;;;;;7.47;4.88;;;13.00;48.70;;;;;;5034591;28;20231;-42
2022/09/22 02:52:40;;;;;;;7.07;5.32;;;13.00;48.70;;;;;;5034448;28;20202;-42
2022/09/22 02:55:08;;;;;;;6.63;4.87;;;12.90;48.70;;;;;;5034680;28;20184;-42
2022/09/22 02:57:34;;;;;;;7.15;5.80;;;12.90;48.60;;;;;;5033927;28;20407;-42
2022/09/22 03:00:00;;;;;;;5.60;4.60;;;11.80;48.10;;;;;;5034331;28;20705;-42
2022/09/22 03:02:26;;;;;;;6.15;5.43;;;12.80;48.60;;;;;;5034424;28;20217;-42
2022/09/22 03:04:52;;;;;;;7.10;4.97;;;12.70;48.60;;;;;;5034290;28;20714;-42
2022/09/22 03:07:18;;;;;;;7.53;4.60;;;12.80;48.80;;;;;;5033952;28;20178;-42
2022/09/22 03:09:44;;;;;;;9.53;4.37;;;12.70;48.80;;;;;;5034517;28;20468;-43
2022/09/22 03:12:09;;;;;;;7.43;5.90;;;12.70;48.70;;;;;;5034144;28;20426;-42
2022/09/22 03:14:35;;;;;;;6.80;5.00;;;12.70;48.80;;;;;;5034149;28;20181;-42
2022/09/22 03:17:01;;;;;;;7.67;5.13;;;12.70;49.00;;;;;;5033614;28;20224;-42
2022/09/22 03:19:27;;;;;;;12.80;4.50;;;12.70;49.20;;;;;;5033921;28;20716;-42
2022/09/22 03:21:53;;;;;;;7.87;5.40;;;12.70;48.90;;;;;;5034368;28;20193;-42
2022/09/22 03:24:18;;;;;;;5.80;4.80;;;12.60;48.90;;;;;;5034178;28;20654;-42
2022/09/22 03:26:44;;;;;;;5.80;4.50;;;12.60;48.50;;;;;;5033301;28;20431;-42
2022/09/22 03:29:10;;;;;;;8.63;5.07;;;12.60;48.80;;;;;;5033853;28;20436;-42
2022/09/22 03:31:36;;;;;;;6.87;4.90;;;12.60;48.80;;;;;;5034035;28;20174;-42
2022/09/22 03:34:01;;;;;;;4.70;3.93;;;12.50;48.80;;;;;;5034088;28;20194;-42
2022/09/22 03:36:27;;;;;;;5.00;3.97;;;12.50;48.60;;;;;;5033362;28;20769;-41
2022/09/22 03:38:53;;;;;;;4.53;4.13;;;12.50;48.60;;;;;;5033735;28;20190;-42
2022/09/22 03:41:19;;;;;;;8.13;4.60;;;12.50;48.70;;;;;;5033609;28;20572;-41
2022/09/22 03:43:45;;;;;;;7.20;4.10;;;12.40;48.40;;;;;;5033678;28;20201;-41
2022/09/22 03:46:13;;;;;;;7.20;4.87;;;12.40;48.30;;;;;;5033284;28;20586;-42
2022/09/22 03:48:39;;;;;;;4.30;3.55;;;12.40;48.40;;;;;;5032404;28;20832;-42
2022/09/22 03:51:04;;;;;;;6.05;4.20;;;12.30;48.50;;;;;;5033830;28;20174;-42
2022/09/22 03:53:30;;;;;;;6.30;5.00;;;12.30;48.50;;;;;;5033367;28;20527;-42
2022/09/22 03:56:22;;;;;;;5.27;4.10;;;12.30;48.40;;;;;;5032899;28;20773;-42
2022/09/22 03:58:48;;;;;;;4.88;4.38;;;12.30;48.10;;;;;;5029617;28;20213;-42
2022/09/22 04:01:14;;;;;;;6.55;4.22;;;12.30;48.20;;;;;;5033319;28;20185;-42
2022/09/22 04:03:40;;;;;;;5.97;4.37;;;12.20;47.90;;;;;;5033185;28;20178;-42
2022/09/22 04:06:07;;;;;;;6.15;4.47;;;12.20;47.80;;;;;;5032604;28;20428;-41
2022/09/22 04:08:32;;;;;;;7.63;4.70;;;12.10;47.80;;;;;;5032842;28;20233;-42
2022/09/22 04:10:59;;;;;;;6.93;5.33;;;12.10;47.80;;;;;;5033183;28;20174;-42
2022/09/22 04:13:24;;;;;;;5.15;4.32;;;12.00;47.90;;;;;;5032875;28;20598;-42
2022/09/22 04:15:50;;;;;;;7.80;3.83;;;12.00;48.00;;;;;;5032306;28;20256;-42
2022/09/22 04:18:16;;;;;;;7.57;3.87;;;12.00;48.10;;;;;;5032793;28;20452;-42
2022/09/22 04:20:43;;;;;;;8.23;4.57;;;12.00;48.20;;;;;;5033282;28;20174;-42
2022/09/22 04:23:13;;;;;;;7.32;3.97;;;12.00;47.80;;;;;;5032993;28;20176;-42
2022/09/22 04:25:39;;;;;;;6.72;4.88;;;12.00;47.80;;;;;;5032278;28;20174;-42
2022/09/22 04:28:05;;;;;;;6.17;3.90;;;11.90;47.90;;;;;;5032686;28;20554;-42
2022/09/22 04:30:32;;;;;;;6.50;4.43;;;11.90;48.00;;;;;;5032976;28;20232;-42
2022/09/22 04:33:01;;;;;;;9.02;4.13;;;11.90;48.00;;;;;;5032786;28;20210;-42
2022/09/22 04:35:27;;;;;;;5.40;4.18;;;11.90;48.00;;;;;;5032544;28;20205;-42
2022/09/22 04:37:54;;;;;;;5.22;4.28;;;11.90;47.80;;;;;;5032124;28;20166;-42
2022/09/22 04:40:21;;;;;;;6.75;5.20;;;11.80;47.60;;;;;;5032562;28;20208;-42
2022/09/22 04:42:47;;;;;;;7.72;4.95;;;11.80;47.60;;;;;;5032528;28;20689;-42
2022/09/22 04:45:15;;;;;;;11.02;5.30;;;11.80;47.40;;;;;;5032731;28;20178;-42
2022/09/22 04:47:44;;;;;;;13.63;6.15;;;11.70;47.60;;;;;;5032233;28;20189;-42
2022/09/22 04:50:10;;;;;;;9.35;5.97;;;11.70;47.70;;;;;;5032542;28;20228;-42
2022/09/22 04:52:36;;;;;;;13.88;6.75;;;11.70;47.80;;;;;;5032421;28;20194;-42
2022/09/22 04:55:02;;;;;;;15.40;6.80;;;11.60;47.40;;;;;;5032291;28;20511;-42
2022/09/22 04:57:28;;;;;;;15.88;7.55;;;11.60;47.50;;;;;;5032071;28;20235;-42
2022/09/22 04:59:54;;;;;;;22.63;7.53;;;11.60;47.60;;;;;;5032179;28;20638;-42
2022/09/22 05:02:19;;;;;;;16.63;7.90;;;11.60;47.70;;;;;;5032352;28;20618;-42
2022/09/22 05:04:45;;;;;;;21.90;8.30;;;11.60;47.70;;;;;;5032432;28;20425;-42
2022/09/22 05:07:11;;;;;;;19.37;9.17;;;11.60;47.80;;;;;;5031715;28;20181;-42
2022/09/22 05:09:37;;;;;;;23.67;9.70;;;11.60;47.80;;;;;;5032283;28;20193;-42
2022/09/22 05:12:03;;;;;;;21.65;8.73;;;11.60;48.00;;;;;;5032355;28;20413;-42
2022/09/22 05:14:30;;;;;;;19.70;9.15;;;11.60;48.10;;;;;;5031995;28;20189;-42
2022/09/22 05:16:56;;;;;;;30.08;11.60;;;11.60;48.30;;;;;;5031479;28;20699;-42
2022/09/22 05:19:22;;;;;;;24.60;9.93;;;11.60;48.40;;;;;;5031867;28;20210;-42
2022/09/22 05:21:47;;;;;;;23.53;9.27;;;11.70;48.60;;;;;;5031955;28;20236;-42
2022/09/22 05:24:13;;;;;;;28.73;10.10;;;11.70;48.70;;;;;;5031904;28;20504;-42
2022/09/22 05:26:39;;;;;;;16.90;9.70;;;11.80;48.70;;;;;;5031340;28;20673;-42
2022/09/22 05:29:05;;;;;;;20.60;7.70;;;11.80;48.80;;;;;;5031916;28;20198;-42
2022/09/22 05:31:31;;;;;;;19.30;8.60;;;11.80;49.00;;;;;;5032113;28;20178;-42
2022/09/22 05:33:57;;;;;;;20.23;8.60;;;11.90;49.10;;;;;;5032115;28;20460;-42
2022/09/22 05:36:23;;;;;;;15.93;9.80;;;11.90;49.10;;;;;;5031287;28;20542;-42
2022/09/22 05:38:49;;;;;;;22.07;10.87;;;12.00;49.10;;;;;;5031711;28;20182;-42
2022/09/22 05:41:15;;;;;;;24.47;9.63;;;12.00;49.10;;;;;;5031818;28;20415;-42
2022/09/22 05:43:40;;;;;;;17.90;9.80;;;12.00;49.30;;;;;;5031734;28;20176;-41
2022/09/22 05:46:06;;;;;;;17.43;9.17;;;12.00;49.50;;;;;;5031286;28;20488;-42
2022/09/22 05:48:32;;;;;;;18.42;9.93;;;12.10;49.60;;;;;;5031595;28;20281;-42
2022/09/22 05:50:58;;;;;;;15.00;7.77;;;12.10;49.70;;;;;;5031887;28;20261;-42
2022/09/22 05:53:24;;;;;;;10.60;7.77;;;12.20;49.80;;;;;;5031750;28;20201;-42
2022/09/22 05:55:49;;;;;;;16.30;8.50;;;12.20;49.80;;;;;;5013592;28;20839;-42
2022/09/22 05:58:15;;;;;;;11.57;6.77;;;12.30;50.00;;;;;;5031672;28;20182;-42
2022/09/22 06:00:41;;;;;;;13.00;8.93;;;12.40;50.00;;;;;;5031927;28;20173;-42
2022/09/22 06:03:07;;;;;;;14.70;8.23;;;12.40;50.00;;;;;;5031674;28;20180;-42
2022/09/22 06:05:33;;;;;;;14.00;9.30;;;12.50;49.90;;;;;;5031084;28;20186;-42
2022/09/22 06:08:02;;;;;;;12.10;8.60;;;12.60;50.00;;;;;;5031446;28;20260;-42
2022/09/22 06:10:29;;;;;;;13.18;8.52;;;12.70;50.20;;;;;;5031780;28;20186;-42
2022/09/22 06:13:02;;;;;;;15.20;9.30;;;12.70;50.10;;;;;;5033641;28;20281;-42
2022/09/22 06:15:29;;;;;;;14.65;9.18;;;12.80;50.10;;;;;;5035450;28;20166;-42
2022/09/22 06:17:56;;;;;;;13.68;9.23;;;12.90;50.20;;;;;;5035121;28;20253;-43
2022/09/22 06:20:22;;;;;;;11.85;8.48;;;12.90;50.20;;;;;;5035469;28;20162;-41
2022/09/22 06:22:48;;;;;;;9.23;7.53;;;12.90;50.30;;;;;;5034982;28;20182;-41
2022/09/22 06:25:14;;;;;;;13.53;8.57;;;13.00;50.40;;;;;;5035317;28;20178;-40
2022/09/22 06:27:41;;;;;;;11.00;7.95;;;13.00;50.40;;;;;;5034676;28;20817;-41
2022/09/22 06:30:10;;;;;;;15.80;9.00;;;13.10;50.50;;;;;;5035350;28;20240;-39
2022/09/22 06:32:42;;;;;;;9.07;7.05;;;13.20;50.60;;;;;;5034940;28;20240;-39
2022/09/22 06:35:08;;;;;;;9.68;7.28;;;13.30;50.60;;;;;;5034804;28;20163;-40
2022/09/22 06:37:37;;;;;;;8.40;6.60;;;13.30;50.70;;;;;;5034202;28;20170;-40
2022/09/22 06:40:05;;;;;;;9.85;7.22;;;13.40;51.10;;;;;;5034681;28;20508;-40
2022/09/22 06:42:31;;;;;;;12.88;7.30;;;13.40;50.70;;;;;;5035105;28;20194;-39
2022/09/22 06:44:57;;;;;;;11.40;7.57;;;13.40;50.40;;;;;;5034911;28;20178;-42
2022/09/22 06:47:23;;;;;;;14.70;9.17;;;13.40;50.50;;;;;;5034185;28;20175;-40
2022/09/22 06:49:48;;;;;;;9.07;7.40;;;13.30;50.60;;;;;;5034518;28;20221;-41
2022/09/22 06:52:14;;;;;;;9.83;7.37;;;13.40;50.70;;;;;;5034482;28;20166;-40
2022/09/22 06:54:40;;;;;;;9.83;7.97;;;13.40;50.90;;;;;;5034821;28;20419;-41
2022/09/22 06:57:07;;;;;;;13.65;9.13;;;13.40;51.00;;;;;;5033955;28;20200;-40
2022/09/22 06:59:36;;;;;;;8.70;6.50;;;13.40;51.10;;;;;;5034542;28;20228;-40
2022/09/22 07:02:06;;;;;;;9.65;8.02;;;13.50;51.20;;;;;;5034669;28;20216;-41
2022/09/22 07:04:34;;;;;;;9.57;8.20;;;13.60;51.00;;;;;;5034590;28;20178;-41
2022/09/22 07:07:02;;;;;;;9.70;7.90;;;13.50;51.20;;;;;;5033731;28;20174;-41
2022/09/22 07:09:29;;;;;;;14.25;9.35;;;13.50;51.30;;;;;;5034356;28;20212;-41
2022/09/22 07:11:55;;;;;;;11.35;7.75;;;13.60;51.30;;;;;;5034262;28;20208;-41
2022/09/22 07:14:21;;;;;;;12.15;8.63;;;13.70;51.60;;;;;;5034092;28;20209;-40
2022/09/22 07:16:47;;;;;;;15.98;9.38;;;13.90;51.60;;;;;;5033439;28;20547;-41
2022/09/22 07:19:14;;;;;;;11.98;8.93;;;14.00;51.50;;;;;;5034011;28;20283;-40
2022/09/22 07:21:39;;;;;;;16.35;11.25;;;14.20;51.50;;;;;;5034017;28;20656;-41
2022/09/22 07:24:07;;;;;;;12.43;9.60;;;14.30;51.00;;;;;;5034100;28;20257;-40
2022/09/22 07:26:38;;;;;;;12.77;9.68;;;14.30;50.90;;;;;;5033375;28;20904;-41
2022/09/22 07:29:10;;;;;;;13.82;11.00;;;14.40;50.80;;;;;;5033864;28;20666;-40
2022/09/22 07:31:36;;;;;;;15.13;10.57;;;14.50;50.90;;;;;;5033866;28;20170;-41
2022/09/22 07:34:02;;;;;;;10.00;8.70;;;14.60;50.70;;;;;;5033952;28;20201;-41
2022/09/22 07:36:30;;;;;;;11.93;9.68;;;14.70;50.30;;;;;;5033188;28;20208;-40
2022/09/22 07:39:01;;;;;;;11.52;10.27;;;14.80;50.20;;;;;;5033787;28;20206;-41
2022/09/22 07:41:29;;;;;;;16.10;10.27;;;14.80;50.30;;;;;;5033796;28;20178;-41
2022/09/22 07:45:11;;;;;;;13.65;9.45;;;14.90;49.40;;;;;;5033588;28;20188;-41
2022/09/22 07:46:46;;;;;;;10.27;9.18;;;14.90;49.40;;;;;;5032893;28;20173;-40
2022/09/22 07:49:14;;;;;;;10.17;9.03;;;15.00;49.90;;;;;;5033729;28;20587;-41
2022/09/22 07:51:40;;;;;;;11.63;10.02;;;15.10;50.30;;;;;;5033553;28;20178;-40
2022/09/22 07:54:06;;;;;;;10.27;9.07;;;15.30;49.80;;;;;;5033691;28;20201;-41
2022/09/22 07:56:43;;;;;;;11.88;10.40;;;15.40;49.60;;;;;;5033113;28;20264;-41
2022/09/22 07:59:14;;;;;;;10.68;9.02;;;15.60;50.00;;;;;;5033415;28;20216;-41
2022/09/22 08:01:46;;;;;;;12.60;9.38;;;15.70;50.00;;;;;;5033302;28;20699;-41
2022/09/22 08:04:17;;;;;;;14.07;10.02;;;15.80;49.20;;;;;;5033229;28;20193;-41
2022/09/22 08:06:48;;;;;;;12.60;10.13;;;15.90;49.10;;;;;;5032581;28;20523;-41
2022/09/22 08:09:14;;;;;;;12.43;9.45;;;16.00;48.50;;;;;;5033220;28;20194;-42
2022/09/22 08:11:44;;;;;;;12.00;9.43;;;16.10;48.90;;;;;;5033358;28;20582;-41
2022/09/22 08:14:11;;;;;;;12.90;9.50;;;16.20;48.80;;;;;;5033520;28;20624;-42
2022/09/22 08:16:38;;;;;;;10.98;9.23;;;16.30;48.80;;;;;;5032464;28;20652;-41
2022/09/22 08:19:11;;;;;;;15.93;10.15;;;16.40;48.70;;;;;;5032858;28;20221;-40
2022/09/22 08:21:38;;;;;;;10.25;9.15;;;16.50;48.90;;;;;;5032880;28;20162;-41
2022/09/22 08:24:06;;;;;;;11.20;10.05;;;16.60;48.80;;;;;;5032890;28;20516;-41
2022/09/22 08:26:35;;;;;;;10.80;9.70;;;16.70;48.90;;;;;;5032199;28;20227;-41
2022/09/22 08:29:02;;;;;;;9.77;8.85;;;16.90;48.90;;;;;;5032865;28;20217;-41
2022/09/22 08:31:28;;;;;;;12.57;10.10;;;17.00;48.90;;;;;;5032824;28;20650;-41
2022/09/22 08:33:54;;;;;;;10.63;9.07;;;17.10;47.60;;;;;;5032558;28;20225;-40
2022/09/22 08:36:21;;;;;;;9.30;8.40;;;17.10;48.00;;;;;;5031554;28;20834;-40
2022/09/22 08:38:48;;;;;;;11.77;8.23;;;17.10;47.70;;;;;;5032846;28;20193;-41
2022/09/22 08:41:38;;;;;;;9.75;8.80;;;17.20;47.70;;;;;;5032723;28;20177;-41
2022/09/22 08:44:09;;;;;;;10.20;9.18;;;17.30;47.80;;;;;;5032654;28;20260;-41
2022/09/22 08:46:40;;;;;;;19.92;9.68;;;17.40;46.50;;;;;;5031961;28;20192;-41
2022/09/22 08:51:55;;;;;;;8.82;7.85;;;17.50;47.30;;;;;;5032463;28;20166;-40
2022/09/22 08:54:28;;;;;;;11.02;9.93;;;17.60;47.50;;;;;;5032595;28;20190;-41
2022/09/22 08:57:14;;;;;;;10.75;9.40;;;17.70;47.20;;;;;;5032002;28;20317;-40
2022/09/22 09:00:08;;;;;;;10.55;9.00;;;17.90;47.40;;;;;;5032416;28;20201;-41
2022/09/22 09:03:12;;;;;;;14.77;9.23;;;18.00;47.30;;;;;;5032316;28;20146;-40
2022/09/22 09:05:50;;;;;;;12.50;9.43;;;18.00;45.70;;;;;;5031507;28;20257;-41
2022/09/22 09:08:42;;;;;;;9.57;8.63;;;17.90;45.50;;;;;;5031876;28;20678;-40
2022/09/22 09:11:26;;;;;;;9.43;8.52;;;17.80;44.20;;;;;;5032272;28;20181;-40
2022/09/22 09:14:16;;;;;;;11.18;10.07;;;17.70;45.40;;;;;;5032121;28;20263;-40
2022/09/22 09:17:07;;;;;;;8.55;7.80;;;17.80;45.80;;;;;;5031611;28;20174;-40
2022/09/22 09:19:36;;;;;;;11.18;8.55;;;18.00;46.70;;;;;;5032165;28;20612;-41
2022/09/22 09:22:27;;;;;;;8.90;8.00;;;18.10;46.30;;;;;;5032263;28;20198;-41
2022/09/22 09:25:13;;;;;;;10.88;9.20;;;18.30;45.20;;;;;;5017971;28;20184;-41
2022/09/22 09:27:42;;;;;;;9.70;7.97;;;18.50;46.30;;;;;;5017977;28;20231;-41
2022/09/22 09:30:19;;;;;;;6.97;6.10;;;18.70;46.30;;;;;;5031838;28;20193;-41
2022/09/22 09:32:48;;;;;;;9.70;7.10;;;18.90;46.20;;;;;;5031832;28;20225;-41
2022/09/22 09:35:16;;;;;;;5.97;5.38;;;19.10;45.50;;;;;;5032048;28;20180;-42
2022/09/22 09:37:45;;;;;;;6.90;5.38;;;19.30;45.10;;;;;;5031428;28;20571;-42
2022/09/22 09:40:17;;;;;;;7.00;6.18;;;19.50;45.30;;;;;;5031883;28;20630;-42
2022/09/22 09:42:54;;;;;;;7.95;6.15;;;19.70;45.40;;;;;;5031750;28;20190;-42
2022/09/22 09:45:27;;;;;;;7.38;6.15;;;19.80;45.00;;;;;;5031812;28;20668;-42
2022/09/22 09:48:16;;;;;;;8.73;5.15;;;19.90;42.30;;;;;;5033567;28;20174;-42
2022/09/22 09:50:42;;;;;;;5.00;3.70;;;20.10;44.00;;;;;;5035794;28;20178;-42
2022/09/22 09:53:28;;;;;;;4.77;4.23;;;20.10;40.10;;;;;;5035634;28;20673;-42
2022/09/22 09:55:53;;;;;;;4.55;4.07;;;20.10;42.00;;;;;;5035400;28;20158;-42
2022/09/22 10:01:04;;;;;;;5.70;5.20;;;20.20;43.30;;;;;;5035751;28;20216;-42
2022/09/22 10:03:33;;;;;;;7.35;3.95;;;20.40;43.20;;;;;;5035584;28;20186;-42
2022/09/22 10:06:09;;;;;;;4.75;3.95;;;20.50;43.20;;;;;;5035167;28;20228;-42
2022/09/22 10:08:48;;;;;;;4.45;3.55;;;20.70;43.20;;;;;;5035554;28;20556;-42
2022/09/22 10:11:14;;;;;;;4.20;3.42;;;20.90;42.90;;;;;;5035766;28;20197;-42
2022/09/22 10:13:42;;;;;;;3.90;3.50;;;20.90;39.70;;;;;;5035214;28;20206;-42
2022/09/22 10:16:21;;;;;;;5.15;2.78;;;20.90;41.50;;;;;;5034585;28;20220;-42
2022/09/22 10:19:01;;;;;;;3.47;2.75;;;21.00;40.60;;;;;;5034970;28;20213;-43
2022/09/22 10:21:27;;;;;;;4.55;2.63;;;21.10;41.00;;;;;;5035370;28;20193;-42
2022/09/22 10:23:59;;;;;;;3.80;2.40;;;21.20;40.80;;;;;;5035268;28;20212;-42
2022/09/22 10:26:29;;;;;;;2.97;2.60;;;21.20;40.40;;;;;;5034458;28;20178;-42
2022/09/22 10:29:18;;;;;;;3.55;2.08;;;21.20;40.20;;;;;;5035004;28;20212;-42
2022/09/22 10:32:15;;;;;;;3.15;2.60;;;21.20;40.00;;;;;;5024854;28;20178;-42
2022/09/22 10:34:43;;;;;;;3.33;2.25;;;21.10;39.80;;;;;;5035138;28;20229;-41
2022/09/22 10:37:11;;;;;;;3.53;2.35;;;20.80;39.90;;;;;;5034610;28;20232;-42
2022/09/22 10:39:40;;;;;;;3.53;2.45;;;20.70;40.00;;;;;;5017654;28;20229;-42
2022/09/22 10:42:17;;;;;;;3.45;2.75;;;20.70;40.50;;;;;;5034824;28;20169;-43
2022/09/22 10:44:43;;;;;;;2.60;1.95;;;20.60;40.50;;;;;;5034855;28;20844;-42
2022/09/22 10:47:31;;;;;;;1.97;1.60;;;20.60;39.70;;;;;;5034094;28;20178;-43
2022/09/22 10:50:21;;;;;;;1.88;1.40;;;20.50;39.90;;;;;;5034862;28;20229;-42
2022/09/22 10:52:57;;;;;;;2.67;1.92;;;20.40;39.30;;;;;;5034613;28;20193;-42
2022/09/22 10:55:29;;;;;;;2.25;1.75;;;20.20;39.00;;;;;;5034828;28;20182;-42
2022/09/22 10:58:07;;;;;;;2.17;1.50;;;20.10;39.20;;;;;;5033657;28;20161;-42
2022/09/22 11:00:34;;;;;;;6.10;3.05;;;20.10;38.90;;;;;;5034572;28;20186;-42
2022/09/22 11:03:22;;;;;;;2.40;2.03;;;20.00;38.10;;;;;;5034703;28;20269;-43
2022/09/22 11:12:44;;;;;;;2.40;1.52;;;19.80;38.10;;;;;;5033265;28;20204;-42
2022/09/22 11:15:53;;;;;;;1.90;1.50;;;19.60;36.80;;;;;;5034196;28;20178;-42
2022/09/22 11:18:36;;;;;;;5.97;1.55;;;19.50;36.00;;;;;;5034137;28;20632;-43
2022/09/22 11:21:24;;;;;;;2.30;1.45;;;19.60;36.60;;;;;;5034204;28;20170;-42
2022/09/22 11:24:20;;;;;;;2.80;1.55;;;19.80;37.50;;;;;;5034052;28;20174;-42
2022/09/22 11:26:51;;;;;;;1.73;1.30;;;20.00;37.60;;;;;;5033698;28;20185;-43
2022/09/22 11:29:44;;;;;;;2.00;1.40;;;20.20;36.80;;;;;;5034209;28;20194;-43
2022/09/22 11:32:23;;;;;;;3.10;1.70;;;20.50;36.10;;;;;;5034053;28;20181;-41
2022/09/22 11:34:55;;;;;;;2.80;1.50;;;20.60;36.20;;;;;;5033758;28;20201;-42
2022/09/22 11:38:01;;;;;;;2.78;1.83;;;20.90;35.90;;;;;;5033158;28;20673;-43
2022/09/22 11:40:51;;;;;;;2.20;1.17;;;21.20;34.40;;;;;;5033789;28;20200;-43
2022/09/22 11:43:25;;;;;;;1.80;1.30;;;21.40;33.60;;;;;;5033968;28;20504;-42
2022/09/22 11:46:00;;;;;;;2.00;1.30;;;21.50;33.00;;;;;;5033013;28;20279;-41
2022/09/22 11:48:53;;;;;;;1.60;1.20;;;21.70;32.60;;;;;;5033492;28;20189;-42
2022/09/22 11:51:31;;;;;;;3.38;1.70;;;21.80;30.80;;;;;;5033610;28;20213;-42
2022/09/22 11:54:24;;;;;;;1.65;1.10;;;22.00;33.40;;;;;;5033384;28;20201;-42
2022/09/22 11:56:55;;;;;;;1.55;1.20;;;22.20;30.30;;;;;;5033051;28;20213;-42
2022/09/22 11:59:49;;;;;;;1.83;1.40;;;22.30;32.50;;;;;;5033245;28;20194;-41
2022/09/22 12:02:37;;;;;;;1.85;1.20;;;22.40;29.40;;;;;;5033150;28;20172;-43
2022/09/22 12:05:26;;;;;;;3.58;1.48;;;22.50;30.70;;;;;;5033212;28;20177;-42
2022/09/22 12:08:10;;;;;;;1.70;0.90;;;22.70;32.30;;;;;;5032735;28;20162;-43
2022/09/22 12:10:40;;;;;;;1.60;1.20;;;22.80;31.90;;;;;;5032281;28;20165;-43
2022/09/22 12:13:26;;;;;;;1.85;1.13;;;23.00;32.30;;;;;;5032928;28;20256;-43
2022/09/22 12:16:38;;;;;;;2.33;1.20;;;23.00;33.20;;;;;;5032550;28;20174;-43
2022/09/22 12:19:24;;;;;;;3.05;1.23;;;22.90;33.00;;;;;;5031047;28;20213;-43
2022/09/22 12:22:46;;;;;;;2.83;1.60;;;22.60;33.10;;;;;;5033193;28;20630;-42
2022/09/22 12:25:13;;;;;;;1.48;1.33;;;22.40;33.30;;;;;;4952402;28;20188;-42
2022/09/22 12:27:39;;;;;;;3.70;1.30;;;22.10;34.50;;;;;;4951867;29;20696;-42
2022/09/22 12:30:18;;;;;;;2.13;1.20;;;22.00;34.60;;;;;;4952380;29;20432;-43
2022/09/22 12:32:49;;;;;;;2.22;1.63;;;21.80;34.90;;;;;;4952375;29;20393;-42
2022/09/22 12:35:28;;;;;;;2.55;1.25;;;21.70;34.80;;;;;;4952328;29;20191;-42
2022/09/22 12:37:54;;;;;;;1.80;1.60;;;21.50;34.60;;;;;;4951822;28;20161;-42
2022/09/22 12:40:40;;;;;;;2.10;1.40;;;21.40;35.00;;;;;;4952329;29;20180;-42
2022/09/22 12:43:14;;;;;;;1.70;1.23;;;21.50;35.40;;;;;;4952215;29;20195;-42
2022/09/22 12:45:41;;;;;;;2.55;1.20;;;21.50;35.30;;;;;;4952306;29;20173;-42
2022/09/22 12:48:21;;;;;;;1.83;1.50;;;21.50;35.40;;;;;;4952048;28;20279;-43
2022/09/22 12:50:48;;;;;;;3.28;1.35;;;21.70;35.70;;;;;;4952162;29;20250;-42
2022/09/22 12:53:28;;;;;;;2.10;1.45;;;21.90;35.60;;;;;;4952073;28;20215;-43
2022/09/22 12:55:56;;;;;;;2.60;1.52;;;22.10;35.50;;;;;;4989948;28;20569;-43
2022/09/22 12:58:24;;;;;;;1.88;1.50;;;22.30;35.00;;;;;;5032159;28;20194;-43
2022/09/22 13:00:52;;;;;;;1.92;1.20;;;22.40;34.80;;;;;;5032244;28;20265;-43
2022/09/22 13:03:24;;;;;;;1.90;1.30;;;22.50;34.30;;;;;;5032213;28;20664;-44
2022/09/22 13:05:55;;;;;;;2.30;1.77;;;22.70;34.20;;;;;;5031742;28;20416;-43
2022/09/22 13:08:24;;;;;;;1.93;1.10;;;22.80;33.70;;;;;;5032066;28;20778;-42
2022/09/22 13:11:04;;;;;;;2.53;1.50;;;22.80;33.60;;;;;;5032082;28;20458;-43
2022/09/22 13:13:30;;;;;;;1.77;1.43;;;22.70;33.20;;;;;;5032028;28;20800;-43
2022/09/22 13:15:59;;;;;;;1.80;1.40;;;22.50;32.90;;;;;;5013827;28;20564;-42
2022/09/22 13:18:38;;;;;;;1.87;1.43;;;22.40;32.50;;;;;;5031998;28;20449;-42
2022/09/22 13:21:13;;;;;;;2.83;1.40;;;22.40;32.90;;;;;;5031940;28;20412;-43
2022/09/22 13:23:48;;;;;;;1.70;1.23;;;22.50;33.30;;;;;;5031945;28;20411;-43